Time;durP1;ratioP1;P1;durP2;ratioP2;P2;SDS_P1;SDS_P2;PMS_P1;PMS_P2;Temp;Humidity;BMP_temperature;BMP_pressure;BME280_temperature;BME280_humidity;BME280_pressure;Samples;Min_cycle;Max_cycle;Signal;HPM_P1;HPM_P2
2022/03/11 00:00:46;;;;;;;19.55;10.40;;;;;;;6.55;45.46;101728.34;5032615;28;20025;-55
2022/03/11 00:03:12;;;;;;;18.42;10.85;;;;;;;6.52;45.38;101725.94;5032889;28;20059;-55
2022/03/11 00:05:38;;;;;;;18.92;10.63;;;;;;;6.49;45.01;101729.63;5032748;28;20484;-55
2022/03/11 00:08:04;;;;;;;20.08;10.55;;;;;;;6.47;45.54;101728.91;5032383;28;20049;-55
2022/03/11 00:10:30;;;;;;;18.63;10.15;;;;;;;6.44;45.58;101714.16;5031756;28;21208;-55
2022/03/11 00:12:55;;;;;;;20.15;10.70;;;;;;;6.42;45.13;101720.50;5032487;28;20051;-55
2022/03/11 00:15:21;;;;;;;19.40;10.77;;;;;;;6.40;45.14;101717.97;5032404;28;20469;-56
2022/03/11 00:17:46;;;;;;;20.10;10.20;;;;;;;6.38;46.20;101713.78;5032726;28;20041;-55
2022/03/11 00:20:12;;;;;;;19.90;10.57;;;;;;;6.35;45.96;101714.00;5032378;28;20461;-53
2022/03/11 00:22:37;;;;;;;19.98;10.82;;;;;;;6.32;46.34;101710.63;5032604;28;20029;-54
2022/03/11 00:25:03;;;;;;;20.10;10.65;;;;;;;6.29;46.20;101713.50;5031587;28;20021;-53
2022/03/11 00:27:28;;;;;;;19.23;11.13;;;;;;;6.26;45.89;101711.06;5032289;28;20037;-55
2022/03/11 00:29:54;;;;;;;19.10;10.88;;;;;;;6.25;45.52;101709.41;5032069;28;20534;-54
2022/03/11 00:32:19;;;;;;;21.77;11.40;;;;;;;6.21;45.62;101707.94;5032797;28;20037;-55
2022/03/11 00:34:44;;;;;;;21.52;11.30;;;;;;;6.19;46.24;101709.84;5032445;28;20380;-54
2022/03/11 00:37:10;;;;;;;22.63;11.15;;;;;;;6.18;46.05;101713.44;5030916;28;20056;-55
2022/03/11 00:39:35;;;;;;;23.05;11.63;;;;;;;6.14;46.27;101706.69;5032066;28;20037;-55
2022/03/11 00:42:00;;;;;;;21.20;11.65;;;;;;;6.13;45.88;101705.03;5031966;28;20117;-55
2022/03/11 00:44:26;;;;;;;21.33;11.50;;;;;;;6.11;46.48;101701.66;5031938;28;20030;-55
2022/03/11 00:46:51;;;;;;;22.25;11.45;;;;;;;6.09;46.67;101703.56;5031209;28;20401;-55
2022/03/11 00:49:16;;;;;;;21.15;11.32;;;;;;;6.05;46.67;101697.66;5032389;28;20033;-55
2022/03/11 00:51:41;;;;;;;22.27;11.82;;;;;;;6.02;46.28;101698.72;5031648;28;20025;-55
2022/03/11 00:54:07;;;;;;;20.40;11.55;;;;;;;6.00;46.65;101700.59;5031894;28;20052;-54
2022/03/11 00:56:33;;;;;;;23.95;11.68;;;;;;;5.97;47.32;101695.53;5032054;28;20430;-55
2022/03/11 00:58:58;;;;;;;19.90;11.13;;;;;;;5.97;46.42;101692.09;5032111;28;20364;-54
2022/03/11 01:01:24;;;;;;;22.50;11.70;;;;;;;5.95;46.78;101686.94;5031217;28;20064;-53
2022/03/11 01:03:49;;;;;;;19.65;11.20;;;;;;;5.93;47.44;101686.22;5031716;28;20361;-53
2022/03/11 01:06:15;;;;;;;22.70;11.85;;;;;;;5.89;47.12;101677.69;5031623;28;20560;-54
2022/03/11 01:08:40;;;;;;;22.50;11.27;;;;;;;5.87;46.67;101674.31;5030489;28;20054;-54
2022/03/11 01:11:08;;;;;;;21.77;11.27;;;;;;;5.85;47.37;101676.22;5031505;28;20029;-55
2022/03/11 01:13:34;;;;;;;22.92;11.68;;;;;;;5.83;47.00;101672.88;5032029;28;20461;-55
2022/03/11 01:15:59;;;;;;;21.10;11.68;;;;;;;5.81;46.45;101666.84;5031343;28;20036;-55
2022/03/11 01:18:24;;;;;;;20.38;12.00;;;;;;;5.79;47.23;101661.69;5030587;28;20041;-55
2022/03/11 01:20:50;;;;;;;20.45;11.27;;;;;;;5.79;46.65;101666.94;5034946;28;20033;-55
2022/03/11 01:23:15;;;;;;;20.70;11.65;;;;;;;5.77;47.22;101658.34;5038419;28;20095;-53
2022/03/11 01:25:42;;;;;;;22.48;11.88;;;;;;;5.76;47.32;101656.66;5038431;28;20041;-53
2022/03/11 01:28:07;;;;;;;18.58;10.90;;;;;;;5.74;46.84;101653.31;5038311;28;20045;-54
2022/03/11 01:30:32;;;;;;;20.33;10.95;;;;;;;5.74;46.86;101653.31;5038068;28;20095;-55
2022/03/11 01:32:58;;;;;;;22.88;11.80;;;;;;;5.70;46.76;101641.31;5038751;28;20037;-55
2022/03/11 01:35:23;;;;;;;20.50;11.25;;;;;;;5.70;47.81;101651.84;5038397;28;20034;-53
2022/03/11 01:37:48;;;;;;;20.55;11.80;;;;;;;5.68;47.71;101643.22;5037870;28;20048;-50
2022/03/11 01:40:13;;;;;;;24.83;11.23;;;;;;;5.69;47.23;101642.25;5038250;28;20029;-54
2022/03/11 01:42:39;;;;;;;22.00;11.32;;;;;;;5.67;47.29;101636.25;5037822;28;20554;-53
2022/03/11 01:45:05;;;;;;;22.23;11.63;;;;;;;5.65;47.15;101633.75;5037734;28;20427;-55
2022/03/11 01:47:31;;;;;;;22.92;12.20;;;;;;;5.63;47.26;101633.00;5038572;28;20041;-56
2022/03/11 01:49:56;;;;;;;19.30;11.52;;;;;;;5.60;47.08;101624.47;5037773;28;20598;-54
2022/03/11 01:52:21;;;;;;;20.13;11.05;;;;;;;5.60;47.58;101619.22;5038073;28;20041;-55
2022/03/11 01:54:49;;;;;;;20.13;11.45;;;;;;;5.58;47.20;101619.31;5037654;28;20041;-55
2022/03/11 01:57:14;;;;;;;20.38;11.60;;;;;;;5.52;47.66;101610.09;5038462;28;20489;-53
2022/03/11 01:59:40;;;;;;;20.50;11.38;;;;;;;5.54;47.09;101614.41;5037794;28;20087;-53
2022/03/11 02:02:06;;;;;;;20.10;11.23;;;;;;;5.50;48.12;101609.38;5037555;28;20049;-54
2022/03/11 02:04:31;;;;;;;21.42;11.35;;;;;;;5.47;47.34;101599.03;5036352;28;20072;-55
2022/03/11 02:06:57;;;;;;;19.85;11.38;;;;;;;5.45;47.15;101598.31;5037985;28;20072;-54
2022/03/11 02:09:22;;;;;;;22.02;11.27;;;;;;;5.46;47.78;101605.25;5039813;28;20095;-54
2022/03/11 02:11:47;;;;;;;21.45;11.90;;;;;;;5.46;46.94;101597.38;5038368;28;20076;-55
2022/03/11 02:14:13;;;;;;;20.30;11.48;;;;;;;5.43;47.49;101586.22;5037871;28;20033;-54
2022/03/11 02:16:40;;;;;;;21.15;11.77;;;;;;;5.43;48.11;101587.06;5037633;28;20060;-55
2022/03/11 02:19:05;;;;;;;23.08;12.55;;;;;;;5.38;47.79;101579.50;5037544;28;20099;-53
2022/03/11 02:21:38;;;;;;;22.83;11.30;;;;;;;5.32;47.11;101568.59;5036451;28;20457;-55
2022/03/11 02:24:05;;;;;;;21.60;10.90;;;;;;;5.36;48.01;101580.56;5037747;28;20132;-56
2022/03/11 02:26:31;;;;;;;21.75;11.73;;;;;;;5.33;47.56;101575.53;5037407;28;20029;-55
2022/03/11 02:28:58;;;;;;;20.58;11.18;;;;;;;5.27;47.61;101565.44;5037387;28;20397;-55
2022/03/11 02:31:27;;;;;;;20.60;11.20;;;;;;;5.28;48.00;101567.13;5036643;28;20052;-54
2022/03/11 02:33:53;;;;;;;18.85;11.10;;;;;;;5.27;47.54;101560.19;5034330;28;20105;-53
2022/03/11 02:36:18;;;;;;;22.27;11.63;;;;;;;5.23;48.41;101557.75;5032934;28;20379;-54
2022/03/11 02:38:44;;;;;;;23.10;11.53;;;;;;;5.25;47.76;101553.22;5034754;28;20475;-54
2022/03/11 02:41:09;;;;;;;21.27;11.90;;;;;;;5.24;48.32;101555.97;5034670;28;20029;-55
2022/03/11 02:43:36;;;;;;;19.73;11.40;;;;;;;5.25;48.04;101557.66;5033564;28;20029;-55
2022/03/11 02:46:01;;;;;;;22.30;11.87;;;;;;;5.21;47.78;101554.41;5034331;28;20483;-55
2022/03/11 02:48:27;;;;;;;22.58;11.35;;;;;;;5.21;47.66;101553.56;5029309;28;20033;-54
2022/03/11 02:50:52;;;;;;;19.43;11.57;;;;;;;5.20;47.63;101555.34;5028264;28;20398;-55
2022/03/11 02:53:17;;;;;;;21.97;11.60;;;;;;;5.20;47.38;101552.72;5030648;28;20094;-55
2022/03/11 02:55:43;;;;;;;21.77;11.43;;;;;;;5.17;48.21;101547.66;5030664;28;20030;-55
2022/03/11 02:58:08;;;;;;;18.85;10.68;;;;;;;5.18;48.13;101546.72;5032561;28;20084;-55
2022/03/11 03:00:34;;;;;;;22.17;11.80;;;;;;;5.18;47.36;101549.34;5030736;28;20076;-55
2022/03/11 03:02:59;;;;;;;21.97;11.47;;;;;;;5.17;47.26;101550.31;5031797;28;20051;-55
2022/03/11 03:05:25;;;;;;;20.95;11.70;;;;;;;5.15;47.70;101546.94;5033147;28;20528;-54
2022/03/11 03:07:50;;;;;;;20.87;11.43;;;;;;;5.13;48.08;101538.31;5033694;28;20536;-54
2022/03/11 03:10:15;;;;;;;19.55;10.90;;;;;;;5.12;47.41;101541.91;5033370;28;20053;-54
2022/03/11 03:12:41;;;;;;;20.95;11.15;;;;;;;5.11;47.96;101532.34;5034209;28;20103;-54
2022/03/11 03:15:08;;;;;;;20.17;11.00;;;;;;;5.12;47.62;101541.91;5033312;28;20065;-55
2022/03/11 03:17:33;;;;;;;20.77;12.02;;;;;;;5.09;47.84;101542.13;5033680;28;20025;-55
2022/03/11 03:19:58;;;;;;;19.57;11.00;;;;;;;5.05;48.12;101541.50;5031865;28;20037;-55
2022/03/11 03:22:24;;;;;;;20.30;11.57;;;;;;;5.05;47.52;101543.28;5033521;28;20025;-55
2022/03/11 03:24:49;;;;;;;20.10;10.87;;;;;;;5.03;47.49;101543.38;5032821;28;20032;-55
2022/03/11 03:27:15;;;;;;;21.27;11.20;;;;;;;5.01;48.07;101534.78;5032989;28;20456;-54
2022/03/11 03:29:40;;;;;;;19.03;10.63;;;;;;;5.01;47.94;101533.91;5033461;28;20091;-54
2022/03/11 03:32:06;;;;;;;21.00;11.10;;;;;;;5.00;47.75;101532.25;5031597;28;20550;-54
2022/03/11 03:34:35;;;;;;;22.17;11.10;;;;;;;4.96;47.79;101532.47;5032650;28;20030;-54
2022/03/11 03:37:07;;;;;;;20.57;11.33;;;;;;;4.91;47.70;101524.06;5033225;28;20040;-55
2022/03/11 03:39:38;;;;;;;22.30;11.30;;;;;;;4.92;47.96;101531.00;5032397;28;20037;-54
2022/03/11 03:42:04;;;;;;;20.23;10.80;;;;;;;4.90;48.48;101532.91;5032723;28;20037;-56
2022/03/11 03:44:29;;;;;;;22.70;11.43;;;;;;;4.88;48.00;101526.88;5032290;28;20387;-54
2022/03/11 03:46:54;;;;;;;18.80;11.10;;;;;;;4.85;47.92;101525.31;5033144;28;20046;-55
2022/03/11 03:49:20;;;;;;;22.03;11.57;;;;;;;4.86;47.58;101528.78;5035711;28;20021;-55
2022/03/11 03:51:46;;;;;;;20.17;10.73;;;;;;;4.81;48.32;101525.66;5037414;28;20029;-54
2022/03/11 03:54:12;;;;;;;18.80;10.60;;;;;;;4.80;48.38;101521.34;5034373;28;20072;-52
2022/03/11 03:56:38;;;;;;;19.67;10.63;;;;;;;4.78;47.84;101524.06;5033089;28;20535;-55
2022/03/11 03:59:07;;;;;;;19.67;10.57;;;;;;;4.76;48.02;101525.13;5033108;28;20037;-55
2022/03/11 04:01:37;;;;;;;19.67;10.90;;;;;;;4.67;48.82;101516.94;5032449;28;20384;-55
2022/03/11 04:04:04;;;;;;;19.70;10.67;;;;;;;4.69;48.33;101525.53;5031278;28;20052;-56
2022/03/11 04:06:32;;;;;;;19.30;11.00;;;;;;;4.67;48.39;101516.94;5032866;28;20021;-54
2022/03/11 04:08:59;;;;;;;18.03;10.80;;;;;;;4.67;48.67;101518.72;5032714;28;20047;-55
2022/03/11 04:11:25;;;;;;;21.43;11.03;;;;;;;4.65;47.98;101516.22;5032900;28;20033;-54
2022/03/11 04:13:51;;;;;;;21.30;10.83;;;;;;;4.63;48.86;101509.38;5032589;28;20537;-56
2022/03/11 04:16:18;;;;;;;22.83;10.63;;;;;;;4.61;48.95;101517.38;5032603;28;20146;-54
2022/03/11 04:18:43;;;;;;;20.10;10.87;;;;;;;4.62;47.76;101513.78;5030657;28;20029;-52
2022/03/11 04:21:08;;;;;;;20.07;11.63;;;;;;;4.60;48.36;101515.69;5032564;28;20087;-55
2022/03/11 04:23:33;;;;;;;21.43;10.80;;;;;;;4.59;47.88;101513.97;5032170;28;20037;-54
2022/03/11 04:25:59;;;;;;;19.63;10.50;;;;;;;4.60;47.64;101514.84;5032307;28;20038;-55
2022/03/11 04:28:25;;;;;;;21.00;11.00;;;;;;;4.58;48.32;101501.78;5032072;28;20037;-54
2022/03/11 04:30:50;;;;;;;17.03;10.60;;;;;;;4.58;47.82;101497.41;5032792;28;20083;-54
2022/03/11 04:33:15;;;;;;;18.63;10.70;;;;;;;4.60;48.22;101499.91;5032018;28;20037;-54
2022/03/11 04:35:41;;;;;;;19.80;10.70;;;;;;;4.61;48.24;101490.25;5032292;28;20033;-56
2022/03/11 04:38:06;;;;;;;17.80;10.23;;;;;;;4.61;47.50;101496.34;5032359;28;20033;-54
2022/03/11 04:40:31;;;;;;;19.47;10.40;;;;;;;4.62;47.71;101489.28;5032093;28;20349;-55
2022/03/11 04:42:56;;;;;;;18.93;10.30;;;;;;;4.65;47.63;101491.72;5031969;28;20049;-54
2022/03/11 04:45:22;;;;;;;17.83;10.03;;;;;;;4.63;47.54;101489.19;5031664;28;20049;-54
2022/03/11 04:47:47;;;;;;;18.73;10.20;;;;;;;4.66;47.52;101496.88;5032440;28;20125;-54
2022/03/11 04:50:12;;;;;;;19.10;10.77;;;;;;;4.66;47.46;101493.38;5031080;28;20498;-50
2022/03/11 04:52:38;;;;;;;18.70;9.97;;;;;;;4.66;47.33;101494.25;5031680;28;20567;-56
2022/03/11 04:55:03;;;;;;;19.50;10.63;;;;;;;4.64;47.36;101496.13;5031255;28;20036;-55
2022/03/11 04:57:29;;;;;;;17.87;10.10;;;;;;;4.65;47.77;101496.97;5032251;28;20029;-55
2022/03/11 04:59:54;;;;;;;17.53;9.73;;;;;;;4.65;47.74;101491.72;5031444;28;20112;-55
2022/03/11 05:02:27;;;;;;;21.23;9.77;;;;;;;4.67;47.27;101490.66;5026307;28;20112;-55
2022/03/11 05:04:52;;;;;;;17.17;9.75;;;;;;;4.66;47.19;101493.38;5031173;28;20025;-56
2022/03/11 05:07:18;;;;;;;21.80;10.20;;;;;;;4.64;47.39;101492.66;5030023;28;20029;-53
2022/03/11 05:09:43;;;;;;;19.80;9.70;;;;;;;4.66;47.32;101489.00;5022363;28;20026;-54
2022/03/11 05:12:09;;;;;;;17.83;9.97;;;;;;;4.67;47.52;101487.19;5028707;28;20053;-56
2022/03/11 05:14:34;;;;;;;19.00;9.97;;;;;;;4.65;47.61;101487.31;5030331;28;20486;-54
2022/03/11 05:17:00;;;;;;;17.77;9.63;;;;;;;4.63;47.45;101483.94;5030879;28;20056;-55
2022/03/11 05:19:26;;;;;;;20.80;10.00;;;;;;;4.65;46.64;101492.56;5030614;28;20045;-54
2022/03/11 05:21:52;;;;;;;18.87;10.40;;;;;;;4.64;47.06;101490.88;5031735;28;20036;-56
2022/03/11 05:24:17;;;;;;;16.67;9.40;;;;;;;4.62;47.39;101482.25;5032653;28;20030;-54
2022/03/11 05:26:42;;;;;;;17.53;9.77;;;;;;;4.61;47.09;101479.72;5032609;28;20029;-55
2022/03/11 05:29:08;;;;;;;17.77;9.57;;;;;;;4.60;47.40;101484.16;5023083;28;20057;-55
2022/03/11 05:31:33;;;;;;;17.50;9.90;;;;;;;4.60;47.69;101478.91;5031720;28;20022;-55
2022/03/11 05:33:59;;;;;;;18.50;9.50;;;;;;;4.61;47.06;101475.31;5031370;28;20037;-55
2022/03/11 05:36:24;;;;;;;17.43;9.20;;;;;;;4.63;47.44;101481.31;5031533;28;20030;-55
2022/03/11 05:38:50;;;;;;;17.90;9.50;;;;;;;4.60;47.71;101476.28;5031006;28;20376;-53
2022/03/11 05:41:15;;;;;;;18.30;9.47;;;;;;;4.62;47.35;101482.25;5031870;28;20492;-54
2022/03/11 05:43:40;;;;;;;16.67;9.30;;;;;;;4.60;47.59;101478.91;5030017;28;20108;-58
2022/03/11 05:46:06;;;;;;;17.37;9.57;;;;;;;4.62;47.96;101486.66;5031725;28;20087;-55
2022/03/11 05:48:32;;;;;;;18.00;9.50;;;;;;;4.64;47.61;101476.91;5031667;28;20512;-54
2022/03/11 05:50:57;;;;;;;17.13;9.60;;;;;;;4.62;48.06;101476.16;5031450;28;20049;-54
2022/03/11 05:53:23;;;;;;;19.80;10.20;;;;;;;4.60;48.12;101478.91;5033077;28;20037;-54
2022/03/11 05:55:48;;;;;;;22.20;9.87;;;;;;;4.63;47.82;101488.38;5025629;28;20057;-55
2022/03/11 05:58:13;;;;;;;19.57;9.67;;;;;;;4.62;48.04;101471.75;5020640;28;20033;-54
2022/03/11 06:00:41;;;;;;;17.23;9.60;;;;;;;4.63;47.53;101468.16;5021952;28;20099;-54
2022/03/11 06:03:07;;;;;;;18.27;9.93;;;;;;;4.63;48.46;101468.16;5024295;28;20036;-54
2022/03/11 06:05:33;;;;;;;18.43;10.00;;;;;;;4.62;47.97;101471.75;5023389;28;20050;-54
2022/03/11 06:07:59;;;;;;;19.27;9.80;;;;;;;4.63;48.33;101468.16;5025921;28;20042;-54
2022/03/11 06:10:25;;;;;;;18.00;9.43;;;;;;;4.65;47.65;101466.28;5024867;28;20033;-55
2022/03/11 06:12:50;;;;;;;16.37;9.20;;;;;;;4.65;48.27;101468.91;5033409;28;20037;-55
2022/03/11 06:15:15;;;;;;;16.77;9.43;;;;;;;4.67;47.50;101469.66;5023489;28;20484;-53
2022/03/11 06:17:41;;;;;;;16.70;9.30;;;;;;;4.68;48.80;101470.47;5019998;28;20026;-53
2022/03/11 06:20:09;;;;;;;18.37;9.80;;;;;;;4.68;48.13;101471.31;5031430;28;20037;-55
2022/03/11 06:22:36;;;;;;;19.57;9.53;;;;;;;4.71;48.38;101475.53;5035189;28;20373;-56
2022/03/11 06:25:04;;;;;;;22.00;9.90;;;;;;;4.73;48.23;101478.06;5033646;28;20143;-56
2022/03/11 06:27:30;;;;;;;17.60;9.23;;;;;;;4.75;48.25;101481.41;5035045;28;20037;-57
2022/03/11 06:29:55;;;;;;;18.57;9.70;;;;;;;4.78;47.90;101479.41;5034008;28;20120;-56
2022/03/11 06:32:20;;;;;;;17.00;9.70;;;;;;;4.76;48.65;101483.06;5034393;28;20045;-54
2022/03/11 06:34:48;;;;;;;17.83;9.80;;;;;;;4.78;47.93;101475.94;5033706;28;20479;-53
2022/03/11 06:37:14;;;;;;;17.20;9.43;;;;;;;4.77;48.68;101474.25;5034336;28;20029;-54
2022/03/11 06:39:39;;;;;;;18.17;9.97;;;;;;;4.81;48.66;101466.06;5049160;28;20358;-54
2022/03/11 06:42:04;;;;;;;17.30;9.70;;;;;;;4.81;48.94;101473.09;5034871;28;20087;-53
2022/03/11 06:44:30;;;;;;;20.23;10.00;;;;;;;4.83;48.77;101469.41;5034182;28;20029;-54
2022/03/11 06:46:55;;;;;;;18.50;9.90;;;;;;;4.85;49.10;101466.69;5033416;28;20133;-54
2022/03/11 06:49:21;;;;;;;18.63;10.70;;;;;;;4.88;48.30;101474.31;5034459;28;20037;-55
2022/03/11 06:51:46;;;;;;;20.53;10.07;;;;;;;4.91;48.39;101470.66;5033826;28;20400;-53
2022/03/11 06:54:11;;;;;;;17.23;9.53;;;;;;;4.94;48.45;101475.69;5032816;28;20091;-55
2022/03/11 06:56:36;;;;;;;17.13;9.87;;;;;;;4.98;48.58;101478.00;5034144;28;20061;-54
2022/03/11 06:59:04;;;;;;;17.83;9.80;;;;;;;4.90;49.25;101467.19;5034268;28;20029;-54
2022/03/11 07:01:29;;;;;;;18.63;9.90;;;;;;;5.00;48.43;101469.16;5039925;28;20041;-58
2022/03/11 07:03:55;;;;;;;17.67;10.07;;;;;;;5.02;48.96;101464.66;5036861;28;20029;-55
2022/03/11 07:06:20;;;;;;;20.00;9.90;;;;;;;5.07;49.24;101459.88;5032376;28;20506;-55
2022/03/11 07:08:45;;;;;;;20.03;9.83;;;;;;;5.12;48.54;101465.66;5032718;28;20041;-51
2022/03/11 07:11:12;;;;;;;18.63;9.97;;;;;;;5.14;48.90;101458.50;5033669;28;20061;-54
2022/03/11 07:13:37;;;;;;;21.17;11.00;;;;;;;5.21;48.37;101456.25;5033843;28;20033;-55
2022/03/11 07:16:04;;;;;;;17.77;10.10;;;;;;;5.24;48.07;101456.88;5033469;28;20033;-55
2022/03/11 07:18:29;;;;;;;19.40;10.87;;;;;;;5.28;48.81;101456.66;5032056;28;20030;-54
2022/03/11 07:20:55;;;;;;;19.37;10.23;;;;;;;5.32;48.99;101453.69;5033234;28;20022;-54
2022/03/11 07:23:20;;;;;;;18.17;10.10;;;;;;;5.36;49.03;101451.66;5026335;28;20043;-58
2022/03/11 07:25:45;;;;;;;20.43;10.43;;;;;;;5.42;47.98;101455.66;5033559;28;20042;-56
2022/03/11 07:28:11;;;;;;;21.43;10.70;;;;;;;5.49;48.34;101460.34;5033684;28;20033;-58
2022/03/11 07:30:38;;;;;;;18.30;10.20;;;;;;;5.51;47.80;101453.19;5033219;28;20041;-57
2022/03/11 07:33:03;;;;;;;19.80;10.33;;;;;;;5.55;48.14;101458.22;5033596;28;20033;-58
2022/03/11 07:35:29;;;;;;;21.13;10.68;;;;;;;5.63;48.14;101461.13;5033269;28;20155;-53
2022/03/11 07:37:54;;;;;;;19.63;11.07;;;;;;;5.66;48.25;101460.91;5033745;28;20029;-55
2022/03/11 07:40:19;;;;;;;22.77;11.03;;;;;;;5.69;48.47;101465.94;5033286;28;20534;-53
2022/03/11 07:42:44;;;;;;;20.33;10.57;;;;;;;5.77;47.42;101458.31;5033003;28;20036;-52
2022/03/11 07:45:12;;;;;;;22.00;11.00;;;;;;;5.79;47.98;101455.56;5033140;28;20400;-54
2022/03/11 07:47:38;;;;;;;21.02;10.82;;;;;;;5.85;47.89;101459.53;5033662;28;20079;-54
2022/03/11 07:50:04;;;;;;;21.17;10.73;;;;;;;5.92;47.73;101455.47;5033388;28;20045;-54
2022/03/11 07:52:29;;;;;;;18.85;10.63;;;;;;;5.98;47.96;101448.91;5032762;28;20052;-56
2022/03/11 07:54:56;;;;;;;18.63;10.33;;;;;;;6.01;47.08;101452.16;5032715;28;20116;-55
2022/03/11 07:57:21;;;;;;;18.23;10.55;;;;;;;6.09;47.06;101456.03;5033100;28;20022;-55
2022/03/11 07:59:46;;;;;;;19.55;10.77;;;;;;;6.14;47.58;101448.63;5032645;28;20503;-56
2022/03/11 08:02:12;;;;;;;19.55;10.80;;;;;;;6.18;47.01;101440.34;5031394;28;20033;-54
2022/03/11 08:04:37;;;;;;;20.17;11.50;;;;;;;6.22;47.22;101438.31;5032541;28;20480;-55
2022/03/11 08:07:06;;;;;;;19.30;10.55;;;;;;;6.27;47.07;101433.53;5033092;28;20033;-53
2022/03/11 08:09:33;;;;;;;25.05;10.88;;;;;;;6.31;46.73;101434.13;5032628;28;20052;-55
2022/03/11 08:11:58;;;;;;;20.42;11.43;;;;;;;6.36;46.87;101425.91;5032214;28;20056;-56
2022/03/11 08:14:23;;;;;;;19.80;11.55;;;;;;;6.39;46.76;101415.97;5031059;28;20373;-56
2022/03/11 08:16:49;;;;;;;22.05;11.52;;;;;;;6.48;47.00;101430.22;5032640;28;20068;-53
2022/03/11 08:19:14;;;;;;;22.20;11.75;;;;;;;6.53;46.70;101421.94;5032848;28;20038;-53
2022/03/11 08:21:40;;;;;;;19.40;11.00;;;;;;;6.57;47.26;101421.56;5032476;28;20038;-54
2022/03/11 08:24:06;;;;;;;23.35;11.13;;;;;;;6.66;47.17;101435.00;5032656;28;20022;-56
2022/03/11 08:26:31;;;;;;;20.52;11.50;;;;;;;6.69;47.07;101432.97;5032698;28;20032;-54
2022/03/11 08:28:57;;;;;;;21.42;11.30;;;;;;;6.78;46.74;101441.09;5031656;28;20037;-55
2022/03/11 08:31:23;;;;;;;23.70;11.63;;;;;;;6.79;46.40;101422.53;5030638;28;20041;-56
2022/03/11 08:33:48;;;;;;;24.38;12.30;;;;;;;6.86;46.64;101423.69;5031596;28;20044;-53
2022/03/11 08:36:13;;;;;;;22.35;11.70;;;;;;;6.93;47.00;101426.69;5032499;28;20035;-55
2022/03/11 08:38:39;;;;;;;21.90;11.93;;;;;;;7.01;46.79;101428.72;5032009;28;20034;-56
2022/03/11 08:41:07;;;;;;;22.02;11.80;;;;;;;7.04;46.45;101423.19;5031606;28;20041;-56
2022/03/11 08:43:32;;;;;;;25.02;11.95;;;;;;;7.13;46.32;101419.81;5032713;28;20037;-56
2022/03/11 08:45:58;;;;;;;21.85;12.50;;;;;;;7.18;45.99;101413.31;5033465;28;20086;-54
2022/03/11 08:48:23;;;;;;;20.02;11.82;;;;;;;7.23;46.22;101419.06;5031497;28;20433;-54
2022/03/11 08:50:48;;;;;;;22.88;12.43;;;;;;;7.26;45.98;101414.34;5031458;28;20034;-51
2022/03/11 08:53:13;;;;;;;22.33;11.75;;;;;;;7.33;46.83;101405.94;5031779;28;20403;-55
2022/03/11 08:55:39;;;;;;;22.58;12.75;;;;;;;7.40;46.29;101412.38;5031926;28;20029;-55
2022/03/11 08:58:04;;;;;;;21.95;11.77;;;;;;;7.45;46.21;101417.31;5032386;28;20021;-55
2022/03/11 09:00:29;;;;;;;20.45;12.02;;;;;;;7.49;46.90;101418.72;5032427;28;20036;-58
2022/03/11 09:02:56;;;;;;;26.45;12.35;;;;;;;7.54;46.35;101406.81;5031785;28;20037;-58
2022/03/11 09:05:22;;;;;;;22.40;12.75;;;;;;;7.63;46.31;101407.00;5031693;28;20025;-57
2022/03/11 09:07:49;;;;;;;23.95;11.88;;;;;;;7.67;45.97;101396.09;5024759;28;20065;-58
2022/03/11 09:10:15;;;;;;;24.65;12.60;;;;;;;7.73;46.11;101402.63;5028653;28;20026;-57
2022/03/11 09:12:41;;;;;;;22.17;12.52;;;;;;;7.80;46.51;101401.16;5031212;28;20109;-58
2022/03/11 09:15:08;;;;;;;23.60;12.50;;;;;;;7.89;45.94;101398.72;5031503;28;20072;-58
2022/03/11 09:17:33;;;;;;;21.60;12.25;;;;;;;7.99;46.79;101393.50;5031732;28;20088;-57
2022/03/11 09:20:03;;;;;;;23.08;12.20;;;;;;;8.06;46.31;101400.72;5032059;28;20500;-57
2022/03/11 09:22:31;;;;;;;23.48;12.43;;;;;;;8.16;46.16;101395.53;5030616;28;20032;-58
2022/03/11 09:24:57;;;;;;;22.95;12.77;;;;;;;8.23;46.20;101385.25;5029481;28;20469;-57
2022/03/11 09:27:23;;;;;;;21.95;12.32;;;;;;;8.28;46.16;101384.84;5030751;28;20033;-57
2022/03/11 09:29:49;;;;;;;20.48;12.48;;;;;;;8.33;46.37;101385.28;5034731;28;20053;-58
2022/03/11 09:32:14;;;;;;;20.95;12.40;;;;;;;8.42;45.61;101384.50;5041308;28;20021;-57
2022/03/11 09:34:40;;;;;;;20.73;12.63;;;;;;;8.47;45.58;101382.28;5031527;28;20033;-58
2022/03/11 09:37:06;;;;;;;21.90;12.65;;;;;;;8.53;45.96;101380.13;5031673;28;20034;-57
2022/03/11 09:39:32;;;;;;;22.05;13.02;;;;;;;8.55;45.89;101372.88;5031774;28;20032;-58
2022/03/11 09:41:57;;;;;;;26.48;13.13;;;;;;;8.61;45.48;101374.97;5023993;28;20034;-57
2022/03/11 09:44:24;;;;;;;22.08;12.38;;;;;;;8.66;45.37;101366.63;5032329;28;20088;-58
2022/03/11 09:46:50;;;;;;;21.20;12.73;;;;;;;8.71;45.54;101370.56;5035915;28;20454;-57
2022/03/11 09:49:16;;;;;;;25.08;12.65;;;;;;;8.79;45.31;101363.75;5035094;28;20099;-58
2022/03/11 09:51:43;;;;;;;24.30;12.10;;;;;;;8.87;45.61;101361.25;5035625;28;20707;-58
2022/03/11 09:54:10;;;;;;;21.20;12.55;;;;;;;8.91;45.54;101356.50;5035070;28;20041;-58
2022/03/11 09:56:38;;;;;;;26.10;12.63;;;;;;;8.97;45.54;101343.59;5035584;28;20021;-57
2022/03/11 09:59:04;;;;;;;26.67;13.13;;;;;;;9.07;46.17;101340.13;5035425;28;20396;-58
2022/03/11 10:01:29;;;;;;;24.40;12.43;;;;;;;9.14;45.18;101336.75;5035251;28;20044;-57
2022/03/11 10:03:54;;;;;;;23.08;12.65;;;;;;;9.25;45.48;101349.03;5034702;28;20030;-59
2022/03/11 10:06:43;;;;;;;19.88;12.00;;;;;;;9.37;45.81;101346.25;5035261;28;20083;-56
2022/03/11 10:09:18;;;;;;;23.88;12.75;;;;;;;9.50;45.23;101333.53;5029913;28;20060;-55
2022/03/11 10:11:46;;;;;;;19.80;11.52;;;;;;;9.54;45.08;101332.25;5030076;28;20034;-55
2022/03/11 10:14:12;;;;;;;21.35;12.32;;;;;;;9.67;45.23;101328.47;5034241;28;20591;-55
2022/03/11 10:16:38;;;;;;;21.48;12.13;;;;;;;9.71;45.17;101326.38;5035160;28;20029;-54
2022/03/11 10:19:04;;;;;;;20.23;11.68;;;;;;;9.80;44.78;101330.81;5035035;28;20381;-56
2022/03/11 10:21:35;;;;;;;19.40;11.70;;;;;;;9.83;44.38;101315.44;5035260;28;20045;-54
2022/03/11 10:24:02;;;;;;;32.33;11.90;;;;;;;9.89;44.41;101314.06;5033555;28;20038;-56
2022/03/11 10:26:39;;;;;;;22.10;12.07;;;;;;;10.00;44.35;101317.47;5035066;28;20076;-55
2022/03/11 10:29:06;;;;;;;21.83;12.30;;;;;;;10.07;44.31;101314.09;5034726;28;20028;-56
2022/03/11 10:31:34;;;;;;;21.25;12.18;;;;;;;10.18;44.31;101322.84;5035225;28;20025;-56
2022/03/11 10:34:15;;;;;;;26.02;12.32;;;;;;;10.24;44.07;101309.00;5034867;28;20026;-56
2022/03/11 10:36:48;;;;;;;24.20;12.70;;;;;;;10.29;44.73;101308.56;5022530;28;20354;-56
2022/03/11 10:39:15;;;;;;;25.00;12.52;;;;;;;10.34;45.16;101301.84;5034825;28;20055;-55
2022/03/11 10:41:40;;;;;;;22.08;11.98;;;;;;;10.47;43.97;101295.38;5034792;28;20025;-56
2022/03/11 10:44:09;;;;;;;21.08;11.60;;;;;;;10.57;43.80;101296.13;5033283;28;20061;-56
2022/03/11 10:46:35;;;;;;;20.65;11.93;;;;;;;10.67;44.28;101297.91;5035087;28;20030;-56
2022/03/11 10:49:00;;;;;;;21.23;12.00;;;;;;;10.70;44.46;101287.00;5034670;28;20053;-56
2022/03/11 10:51:33;;;;;;;22.60;11.77;;;;;;;10.78;44.73;101287.06;5034501;28;20065;-56
2022/03/11 10:54:04;;;;;;;22.63;12.15;;;;;;;10.87;44.37;101280.81;5033736;28;20044;-56
2022/03/11 10:56:35;;;;;;;21.15;12.02;;;;;;;10.93;43.53;101279.41;5034729;28;20022;-55
2022/03/11 10:59:35;;;;;;;24.15;12.02;;;;;;;11.03;43.93;101272.19;5034500;28;20369;-56
2022/03/11 11:02:00;;;;;;;24.05;12.05;;;;;;;11.10;43.56;101269.75;5048547;28;20025;-56
2022/03/11 11:04:26;;;;;;;21.92;11.82;;;;;;;11.14;43.01;101260.50;5033713;28;20153;-56
2022/03/11 11:06:52;;;;;;;24.95;12.30;;;;;;;11.12;43.17;101267.78;5033004;28;20063;-55
2022/03/11 11:09:21;;;;;;;25.42;12.52;;;;;;;11.15;43.50;101267.47;5034386;28;20049;-56
2022/03/11 11:11:46;;;;;;;23.17;12.98;;;;;;;11.22;43.14;101261.53;5034549;28;20112;-55